createdAt,value
2019-05-15T00:12:52.173Z,7.35
2019-05-15T00:33:01.559Z,7.97
2019-05-15T00:53:10.968Z,7.98
2019-05-15T01:13:20.313Z,7.65
2019-05-15T01:33:29.678Z,7.52
2019-05-15T01:53:39.044Z,7.55
2019-05-15T02:13:48.474Z,7.34
2019-05-15T02:33:59.039Z,6.95
2019-05-15T02:54:09.956Z,6.89
2019-05-15T03:14:15.730Z,7.94
2019-05-15T03:34:28.877Z,6.43
2019-05-15T03:54:32.783Z,8.18
2019-05-15T04:14:40.746Z,6.03
2019-05-15T04:34:50.190Z,5.52
2019-05-15T04:54:59.920Z,5.49
2019-05-15T05:15:10.821Z,5.15
2019-05-15T05:35:10.241Z,6.18
2019-05-15T05:55:21.971Z,5.06
2019-05-15T06:15:21.355Z,5.15
2019-05-15T06:35:31.406Z,5.46
2019-05-15T06:55:39.707Z,5.36
2019-05-15T07:15:49.776Z,5.21
2019-05-15T07:36:00.544Z,4.62
2019-05-15T07:56:01.439Z,4.73
2019-05-15T08:16:09.027Z,4.52
2019-05-15T08:36:18.503Z,4.38
2019-05-15T08:56:28.881Z,4.54
2019-05-15T09:16:38.730Z,4.51
2019-05-15T09:36:48.408Z,4.46
2019-05-15T09:56:54.852Z,5.04
2019-05-15T10:17:04.273Z,4.52
2019-05-15T10:37:18.399Z,4.15
2019-05-15T10:57:14.868Z,3.83
2019-05-15T11:17:31.493Z,3.83
2019-05-15T11:37:28.356Z,3.87
2019-05-15T11:57:43.569Z,4.35
2019-05-15T12:17:48.514Z,4.46
2019-05-15T12:37:55.125Z,5.21
2019-05-15T13:18:14.391Z,3.40
2019-05-15T13:38:21.387Z,4.04
2019-05-15T13:58:31.767Z,4.80
2019-05-15T14:18:31.704Z,4.29
2019-05-15T14:38:41.342Z,3.81
2019-05-15T14:58:54.999Z,4.76
2019-05-15T15:18:52.914Z,4.66
2019-05-15T15:39:02.350Z,4.08
2019-05-15T15:59:12.779Z,2.84
2019-05-15T16:19:18.759Z,3.06
2019-05-15T16:39:18.189Z,3.33
2019-05-15T16:59:25.267Z,3.11
2019-05-15T17:19:36.010Z,3.41
2019-05-15T17:39:48.764Z,3.39
2019-05-15T17:59:48.692Z,3.01
2019-05-15T18:19:58.153Z,3.05
2019-05-15T18:40:09.830Z,3.12
2019-05-15T19:00:08.922Z,3.79
2019-05-15T19:20:08.445Z,4.13
2019-05-15T19:40:18.741Z,4.67
2019-05-15T20:00:28.244Z,4.08
2019-05-15T20:20:35.715Z,3.84
2019-05-15T20:40:48.585Z,4.32
2019-05-15T21:00:45.709Z,4.25
2019-05-15T21:20:55.253Z,4.86
2019-05-15T21:41:04.595Z,4.86
2019-05-15T22:01:14.271Z,4.49
2019-05-15T22:21:23.700Z,4.53
2019-05-15T22:41:35.400Z,4.33
2019-05-15T23:01:35.044Z,5.50
2019-05-15T23:21:44.448Z,4.82
2019-05-15T23:41:53.904Z,5.30
